sensor_id;sensor_type;location;lat;lon;timestamp;temperature;humidity
8338;DHT22;4206;48.634;9.516;2023-04-24T00:00:23;11.40;99.90
8338;DHT22;4206;48.634;9.516;2023-04-24T00:02:50;11.40;99.90
8338;DHT22;4206;48.634;9.516;2023-04-24T00:05:17;11.40;99.90
8338;DHT22;4206;48.634;9.516;2023-04-24T00:07:45;11.30;99.90
8338;DHT22;4206;48.634;9.516;2023-04-24T00:10:12;11.30;99.90
8338;DHT22;4206;48.634;9.516;2023-04-24T00:12:39;11.20;99.90
8338;DHT22;4206;48.634;9.516;2023-04-24T00:15:06;11.20;99.90
8338;DHT22;4206;48.634;9.516;2023-04-24T00:17:34;11.30;99.90
8338;DHT22;4206;48.634;9.516;2023-04-24T00:20:01;11.50;99.90
8338;DHT22;4206;48.634;9.516;2023-04-24T00:22:31;11.50;99.90
8338;DHT22;4206;48.634;9.516;2023-04-24T00:24:58;11.60;99.90
8338;DHT22;4206;48.634;9.516;2023-04-24T00:27:25;11.60;99.90
8338;DHT22;4206;48.634;9.516;2023-04-24T00:29:52;11.70;99.90
8338;DHT22;4206;48.634;9.516;2023-04-24T00:32:19;11.70;99.90
8338;DHT22;4206;48.634;9.516;2023-04-24T00:34:46;11.60;99.90
8338;DHT22;4206;48.634;9.516;2023-04-24T00:37:13;11.60;99.90
8338;DHT22;4206;48.634;9.516;2023-04-24T00:39:39;11.50;99.90
8338;DHT22;4206;48.634;9.516;2023-04-24T00:42:07;11.40;99.90
8338;DHT22;4206;48.634;9.516;2023-04-24T00:44:34;11.40;99.90
8338;DHT22;4206;48.634;9.516;2023-04-24T00:47:01;11.20;99.90
8338;DHT22;4206;48.634;9.516;2023-04-24T00:49:28;11.30;99.90
8338;DHT22;4206;48.634;9.516;2023-04-24T00:51:55;11.20;99.90
8338;DHT22;4206;48.634;9.516;2023-04-24T00:54:23;11.30;99.90
8338;DHT22;4206;48.634;9.516;2023-04-24T00:56:50;11.30;99.90
8338;DHT22;4206;48.634;9.516;2023-04-24T00:59:18;11.30;99.90
8338;DHT22;4206;48.634;9.516;2023-04-24T01:01:45;11.40;99.90
8338;DHT22;4206;48.634;9.516;2023-04-24T01:04:14;11.30;99.90
8338;DHT22;4206;48.634;9.516;2023-04-24T01:06:43;11.30;99.90
8338;DHT22;4206;48.634;9.516;2023-04-24T01:09:12;11.20;99.90
8338;DHT22;4206;48.634;9.516;2023-04-24T01:11:40;11.30;99.90
8338;DHT22;4206;48.634;9.516;2023-04-24T01:14:08;11.20;99.90
8338;DHT22;4206;48.634;9.516;2023-04-24T01:16:35;11.20;99.90
8338;DHT22;4206;48.634;9.516;2023-04-24T01:19:02;11.10;99.90
8338;DHT22;4206;48.634;9.516;2023-04-24T01:21:29;11.10;99.90
8338;DHT22;4206;48.634;9.516;2023-04-24T01:23:57;11.00;99.90
8338;DHT22;4206;48.634;9.516;2023-04-24T01:26:24;11.00;99.90
8338;DHT22;4206;48.634;9.516;2023-04-24T01:28:52;11.00;99.90
8338;DHT22;4206;48.634;9.516;2023-04-24T01:31:20;11.00;99.90
8338;DHT22;4206;48.634;9.516;2023-04-24T01:33:47;10.90;99.90
8338;DHT22;4206;48.634;9.516;2023-04-24T01:36:16;11.00;99.90
8338;DHT22;4206;48.634;9.516;2023-04-24T01:38:43;11.00;99.90
8338;DHT22;4206;48.634;9.516;2023-04-24T01:41:10;10.90;99.90
8338;DHT22;4206;48.634;9.516;2023-04-24T01:43:38;10.90;99.90
8338;DHT22;4206;48.634;9.516;2023-04-24T01:46:05;10.80;99.90
8338;DHT22;4206;48.634;9.516;2023-04-24T01:48:33;10.80;99.90
8338;DHT22;4206;48.634;9.516;2023-04-24T01:51:00;10.80;99.90
8338;DHT22;4206;48.634;9.516;2023-04-24T01:53:27;10.80;99.90
8338;DHT22;4206;48.634;9.516;2023-04-24T01:55:54;10.70;99.90
8338;DHT22;4206;48.634;9.516;2023-04-24T01:58:22;10.70;99.90
8338;DHT22;4206;48.634;9.516;2023-04-24T02:00:49;10.70;99.90
8338;DHT22;4206;48.634;9.516;2023-04-24T02:03:16;10.60;99.90
8338;DHT22;4206;48.634;9.516;2023-04-24T02:05:44;10.60;99.90
8338;DHT22;4206;48.634;9.516;2023-04-24T02:08:12;10.60;99.90
8338;DHT22;4206;48.634;9.516;2023-04-24T02:10:39;10.60;99.90
8338;DHT22;4206;48.634;9.516;2023-04-24T02:13:05;10.60;99.90
8338;DHT22;4206;48.634;9.516;2023-04-24T02:15:32;10.60;99.90
8338;DHT22;4206;48.634;9.516;2023-04-24T02:17:59;10.70;99.90
8338;DHT22;4206;48.634;9.516;2023-04-24T02:20:26;10.70;99.90
8338;DHT22;4206;48.634;9.516;2023-04-24T02:22:53;10.70;99.90
8338;DHT22;4206;48.634;9.516;2023-04-24T02:25:20;10.70;99.90
8338;DHT22;4206;48.634;9.516;2023-04-24T02:27:46;10.70;99.90
8338;DHT22;4206;48.634;9.516;2023-04-24T02:30:13;10.80;99.90
8338;DHT22;4206;48.634;9.516;2023-04-24T02:32:41;10.80;99.90
8338;DHT22;4206;48.634;9.516;2023-04-24T02:35:08;10.80;99.90
8338;DHT22;4206;48.634;9.516;2023-04-24T02:37:35;10.80;99.90
8338;DHT22;4206;48.634;9.516;2023-04-24T02:40:02;10.80;99.90
8338;DHT22;4206;48.634;9.516;2023-04-24T02:42:29;10.80;99.90
8338;DHT22;4206;48.634;9.516;2023-04-24T02:44:56;10.80;99.90
8338;DHT22;4206;48.634;9.516;2023-04-24T02:47:23;10.80;99.90
8338;DHT22;4206;48.634;9.516;2023-04-24T02:49:50;10.70;99.90
8338;DHT22;4206;48.634;9.516;2023-04-24T02:52:17;10.70;99.90
8338;DHT22;4206;48.634;9.516;2023-04-24T02:54:44;10.70;99.90
8338;DHT22;4206;48.634;9.516;2023-04-24T02:57:11;10.80;99.90
8338;DHT22;4206;48.634;9.516;2023-04-24T02:59:37;10.90;99.90
8338;DHT22;4206;48.634;9.516;2023-04-24T04:00:16;10.30;99.90
8338;DHT22;4206;48.634;9.516;2023-04-24T04:02:43;10.20;99.90
8338;DHT22;4206;48.634;9.516;2023-04-24T04:05:10;10.10;99.90
8338;DHT22;4206;48.634;9.516;2023-04-24T04:07:36;10.20;99.90
8338;DHT22;4206;48.634;9.516;2023-04-24T04:10:04;10.20;99.90
8338;DHT22;4206;48.634;9.516;2023-04-24T04:12:30;10.10;99.90
8338;DHT22;4206;48.634;9.516;2023-04-24T04:14:57;10.00;99.90
8338;DHT22;4206;48.634;9.516;2023-04-24T04:17:24;10.00;99.90
8338;DHT22;4206;48.634;9.516;2023-04-24T04:19:51;10.10;99.90
8338;DHT22;4206;48.634;9.516;2023-04-24T04:22:18;10.10;99.90
8338;DHT22;4206;48.634;9.516;2023-04-24T04:24:45;10.00;99.90
8338;DHT22;4206;48.634;9.516;2023-04-24T04:27:12;9.90;99.90
8338;DHT22;4206;48.634;9.516;2023-04-24T04:29:39;9.80;99.90
8338;DHT22;4206;48.634;9.516;2023-04-24T04:32:07;9.90;99.90
8338;DHT22;4206;48.634;9.516;2023-04-24T04:34:34;9.80;99.90
8338;DHT22;4206;48.634;9.516;2023-04-24T04:37:01;9.80;99.90
8338;DHT22;4206;48.634;9.516;2023-04-24T04:39:28;9.80;99.90
8338;DHT22;4206;48.634;9.516;2023-04-24T04:41:56;9.80;99.90
8338;DHT22;4206;48.634;9.516;2023-04-24T04:44:23;9.80;99.90
8338;DHT22;4206;48.634;9.516;2023-04-24T04:46:50;9.80;99.90
8338;DHT22;4206;48.634;9.516;2023-04-24T04:49:19;9.80;99.90
8338;DHT22;4206;48.634;9.516;2023-04-24T04:51:48;9.80;99.90
8338;DHT22;4206;48.634;9.516;2023-04-24T04:54:15;9.80;99.90
8338;DHT22;4206;48.634;9.516;2023-04-24T04:56:42;9.90;99.90
8338;DHT22;4206;48.634;9.516;2023-04-24T04:59:09;9.90;99.90
8338;DHT22;4206;48.634;9.516;2023-04-24T05:01:36;9.90;99.90
8338;DHT22;4206;48.634;9.516;2023-04-24T05:04:03;10.00;99.90
8338;DHT22;4206;48.634;9.516;2023-04-24T05:06:30;10.00;99.90
8338;DHT22;4206;48.634;9.516;2023-04-24T05:08:57;10.00;99.90
8338;DHT22;4206;48.634;9.516;2023-04-24T05:11:24;10.00;99.90
8338;DHT22;4206;48.634;9.516;2023-04-24T05:13:53;10.00;99.90
8338;DHT22;4206;48.634;9.516;2023-04-24T05:16:20;9.90;99.90
8338;DHT22;4206;48.634;9.516;2023-04-24T05:18:47;9.70;99.90
8338;DHT22;4206;48.634;9.516;2023-04-24T05:21:13;9.40;99.90
8338;DHT22;4206;48.634;9.516;2023-04-24T05:23:40;9.20;99.90
8338;DHT22;4206;48.634;9.516;2023-04-24T05:26:07;9.00;99.90
8338;DHT22;4206;48.634;9.516;2023-04-24T05:28:34;8.80;99.90
8338;DHT22;4206;48.634;9.516;2023-04-24T05:31:03;8.60;99.90
8338;DHT22;4206;48.634;9.516;2023-04-24T05:33:30;8.50;99.90
8338;DHT22;4206;48.634;9.516;2023-04-24T05:35:57;8.40;99.90
8338;DHT22;4206;48.634;9.516;2023-04-24T05:38:25;8.40;99.90
8338;DHT22;4206;48.634;9.516;2023-04-24T05:40:52;8.40;99.90
8338;DHT22;4206;48.634;9.516;2023-04-24T05:43:19;8.30;99.90
8338;DHT22;4206;48.634;9.516;2023-04-24T05:45:46;8.30;99.90
8338;DHT22;4206;48.634;9.516;2023-04-24T05:48:13;8.30;99.90
8338;DHT22;4206;48.634;9.516;2023-04-24T05:50:40;8.30;99.90
8338;DHT22;4206;48.634;9.516;2023-04-24T05:53:07;8.30;99.90
8338;DHT22;4206;48.634;9.516;2023-04-24T05:55:34;8.30;99.90
8338;DHT22;4206;48.634;9.516;2023-04-24T05:58:01;8.30;99.90
8338;DHT22;4206;48.634;9.516;2023-04-24T06:00:28;8.40;99.90
8338;DHT22;4206;48.634;9.516;2023-04-24T06:02:55;8.40;99.90
8338;DHT22;4206;48.634;9.516;2023-04-24T06:05:22;8.40;99.90
8338;DHT22;4206;48.634;9.516;2023-04-24T06:07:49;8.40;99.90
8338;DHT22;4206;48.634;9.516;2023-04-24T06:10:16;8.40;99.90
8338;DHT22;4206;48.634;9.516;2023-04-24T06:12:43;8.40;99.90
8338;DHT22;4206;48.634;9.516;2023-04-24T06:15:11;8.40;99.90
8338;DHT22;4206;48.634;9.516;2023-04-24T06:17:38;8.50;99.90
8338;DHT22;4206;48.634;9.516;2023-04-24T06:20:05;8.50;99.90
8338;DHT22;4206;48.634;9.516;2023-04-24T06:22:33;8.50;99.90
8338;DHT22;4206;48.634;9.516;2023-04-24T06:25:01;8.60;99.90
8338;DHT22;4206;48.634;9.516;2023-04-24T06:27:28;8.60;99.90
8338;DHT22;4206;48.634;9.516;2023-04-24T06:29:55;8.70;99.90
8338;DHT22;4206;48.634;9.516;2023-04-24T06:32:24;8.90;99.90
8338;DHT22;4206;48.634;9.516;2023-04-24T06:34:52;9.00;99.90
8338;DHT22;4206;48.634;9.516;2023-04-24T06:37:20;8.90;99.90
8338;DHT22;4206;48.634;9.516;2023-04-24T06:39:47;9.00;99.90
8338;DHT22;4206;48.634;9.516;2023-04-24T06:42:14;9.30;99.90
8338;DHT22;4206;48.634;9.516;2023-04-24T06:44:41;9.30;99.90
8338;DHT22;4206;48.634;9.516;2023-04-24T06:47:10;9.40;99.90
8338;DHT22;4206;48.634;9.516;2023-04-24T06:49:37;9.60;99.90
8338;DHT22;4206;48.634;9.516;2023-04-24T06:52:04;9.80;99.90
8338;DHT22;4206;48.634;9.516;2023-04-24T06:54:32;9.80;99.90
8338;DHT22;4206;48.634;9.516;2023-04-24T06:57:17;9.80;99.90
8338;DHT22;4206;48.634;9.516;2023-04-24T06:59:52;9.90;99.90
8338;DHT22;4206;48.634;9.516;2023-04-24T07:02:24;9.90;99.90
8338;DHT22;4206;48.634;9.516;2023-04-24T07:04:51;10.30;99.90
8338;DHT22;4206;48.634;9.516;2023-04-24T07:07:19;10.40;99.90
8338;DHT22;4206;48.634;9.516;2023-04-24T07:09:46;10.50;99.90
8338;DHT22;4206;48.634;9.516;2023-04-24T07:12:13;10.80;99.90
8338;DHT22;4206;48.634;9.516;2023-04-24T07:14:40;10.90;99.90
8338;DHT22;4206;48.634;9.516;2023-04-24T07:17:07;11.10;99.90
8338;DHT22;4206;48.634;9.516;2023-04-24T07:19:34;11.00;99.90
8338;DHT22;4206;48.634;9.516;2023-04-24T07:22:02;11.10;99.90
8338;DHT22;4206;48.634;9.516;2023-04-24T07:24:30;11.00;99.90
8338;DHT22;4206;48.634;9.516;2023-04-24T07:26:59;11.20;99.90
8338;DHT22;4206;48.634;9.516;2023-04-24T07:29:27;11.60;99.90
8338;DHT22;4206;48.634;9.516;2023-04-24T07:31:54;11.60;99.90
8338;DHT22;4206;48.634;9.516;2023-04-24T07:34:21;11.70;99.90
8338;DHT22;4206;48.634;9.516;2023-04-24T07:36:48;11.70;99.90
8338;DHT22;4206;48.634;9.516;2023-04-24T07:39:15;11.90;99.90
8338;DHT22;4206;48.634;9.516;2023-04-24T07:41:42;11.60;99.90
8338;DHT22;4206;48.634;9.516;2023-04-24T07:44:09;11.50;99.90
8338;DHT22;4206;48.634;9.516;2023-04-24T07:46:36;11.30;99.90
8338;DHT22;4206;48.634;9.516;2023-04-24T07:49:04;11.20;99.90
8338;DHT22;4206;48.634;9.516;2023-04-24T07:51:40;11.00;99.90
8338;DHT22;4206;48.634;9.516;2023-04-24T07:54:08;10.70;99.90
8338;DHT22;4206;48.634;9.516;2023-04-24T07:56:35;10.50;99.90
8338;DHT22;4206;48.634;9.516;2023-04-24T07:59:05;10.30;99.90
8338;DHT22;4206;48.634;9.516;2023-04-24T08:01:32;10.40;99.90
8338;DHT22;4206;48.634;9.516;2023-04-24T08:03:59;10.30;99.90
8338;DHT22;4206;48.634;9.516;2023-04-24T08:06:27;10.10;99.90
8338;DHT22;4206;48.634;9.516;2023-04-24T08:08:57;9.90;99.90
8338;DHT22;4206;48.634;9.516;2023-04-24T08:11:25;9.80;99.90
8338;DHT22;4206;48.634;9.516;2023-04-24T08:13:52;10.00;99.90
8338;DHT22;4206;48.634;9.516;2023-04-24T08:16:19;10.00;99.90
8338;DHT22;4206;48.634;9.516;2023-04-24T08:18:47;10.20;99.90
8338;DHT22;4206;48.634;9.516;2023-04-24T08:21:13;11.10;99.90
8338;DHT22;4206;48.634;9.516;2023-04-24T08:23:44;11.60;99.90
8338;DHT22;4206;48.634;9.516;2023-04-24T08:26:13;11.50;99.90
8338;DHT22;4206;48.634;9.516;2023-04-24T08:28:39;11.30;99.90
8338;DHT22;4206;48.634;9.516;2023-04-24T08:31:07;11.20;99.90
8338;DHT22;4206;48.634;9.516;2023-04-24T08:33:34;11.50;99.90
8338;DHT22;4206;48.634;9.516;2023-04-24T08:36:04;12.00;99.90
8338;DHT22;4206;48.634;9.516;2023-04-24T08:38:31;12.40;99.90
8338;DHT22;4206;48.634;9.516;2023-04-24T08:41:00;12.70;99.90
8338;DHT22;4206;48.634;9.516;2023-04-24T08:43:27;13.20;99.90
8338;DHT22;4206;48.634;9.516;2023-04-24T08:45:56;13.50;99.90
8338;DHT22;4206;48.634;9.516;2023-04-24T08:48:24;14.00;99.90
8338;DHT22;4206;48.634;9.516;2023-04-24T08:50:58;13.70;99.90
8338;DHT22;4206;48.634;9.516;2023-04-24T08:53:26;13.60;99.90
8338;DHT22;4206;48.634;9.516;2023-04-24T08:55:55;13.10;99.90
8338;DHT22;4206;48.634;9.516;2023-04-24T08:58:25;12.90;99.90
8338;DHT22;4206;48.634;9.516;2023-04-24T09:00:55;12.70;99.90
8338;DHT22;4206;48.634;9.516;2023-04-24T09:03:22;12.50;99.90
8338;DHT22;4206;48.634;9.516;2023-04-24T09:05:51;12.30;99.90
8338;DHT22;4206;48.634;9.516;2023-04-24T09:08:19;12.20;99.90
8338;DHT22;4206;48.634;9.516;2023-04-24T09:10:46;12.40;99.90
8338;DHT22;4206;48.634;9.516;2023-04-24T09:13:18;13.80;99.90
8338;DHT22;4206;48.634;9.516;2023-04-24T09:15:45;15.80;99.90
8338;DHT22;4206;48.634;9.516;2023-04-24T09:18:12;16.90;99.90
8338;DHT22;4206;48.634;9.516;2023-04-24T09:23:27;18.10;99.90
8338;DHT22;4206;48.634;9.516;2023-04-24T09:25:55;16.50;99.90
8338;DHT22;4206;48.634;9.516;2023-04-24T09:28:32;15.60;99.90
8338;DHT22;4206;48.634;9.516;2023-04-24T09:31:17;15.40;99.90
8338;DHT22;4206;48.634;9.516;2023-04-24T09:34:02;15.10;99.90
8338;DHT22;4206;48.634;9.516;2023-04-24T09:39:01;13.50;99.90
8338;DHT22;4206;48.634;9.516;2023-04-24T09:41:28;13.20;99.90
8338;DHT22;4206;48.634;9.516;2023-04-24T09:43:56;13.00;99.90
8338;DHT22;4206;48.634;9.516;2023-04-24T09:46:30;14.20;99.90
8338;DHT22;4206;48.634;9.516;2023-04-24T09:49:08;14.90;99.90
8338;DHT22;4206;48.634;9.516;2023-04-24T09:51:37;15.50;99.90
8338;DHT22;4206;48.634;9.516;2023-04-24T09:54:11;15.00;99.90
8338;DHT22;4206;48.634;9.516;2023-04-24T09:56:42;14.80;99.90
8338;DHT22;4206;48.634;9.516;2023-04-24T09:59:11;14.20;99.90
8338;DHT22;4206;48.634;9.516;2023-04-24T10:01:38;13.90;99.90
8338;DHT22;4206;48.634;9.516;2023-04-24T10:04:16;13.40;99.90
8338;DHT22;4206;48.634;9.516;2023-04-24T10:06:44;13.30;99.90
8338;DHT22;4206;48.634;9.516;2023-04-24T10:09:12;13.10;99.90
8338;DHT22;4206;48.634;9.516;2023-04-24T10:11:42;12.80;99.90
8338;DHT22;4206;48.634;9.516;2023-04-24T10:14:14;12.70;99.90
8338;DHT22;4206;48.634;9.516;2023-04-24T10:16:42;12.60;99.90
8338;DHT22;4206;48.634;9.516;2023-04-24T10:19:10;12.50;99.90
